Time;durP1;ratioP1;P1;durP2;ratioP2;P2;SDS_P1;SDS_P2;PMS_P1;PMS_P2;Temp;Humidity;BMP_temperature;BMP_pressure;BME280_temperature;BME280_humidity;BME280_pressure;Samples;Min_cycle;Max_cycle;Signal;HPM_P1;HPM_P2
2023/04/26 00:02:21;;;;;;;;;;;2.90;99.90;;;;;;4942859;29;19922;-65
2023/04/26 00:04:57;;;;;;;;;;;2.90;99.90;;;;;;4956116;28;19919;-65
2023/04/26 00:07:23;;;;;;;;;;;2.80;99.90;;;;;;4966209;28;20045;-65
2023/04/26 00:09:50;;;;;;;;;;;2.80;99.90;;;;;;4962736;28;19918;-65
2023/04/26 00:12:15;;;;;;;;;;;2.70;99.90;;;;;;4955989;28;19924;-65
2023/04/26 00:14:50;;;;;;;;;;;2.60;99.90;;;;;;4954257;28;20008;-65
2023/04/26 00:17:34;;;;;;;;;;;2.50;99.90;;;;;;4955876;28;19917;-66
2023/04/26 00:20:00;;;;;;;;;;;2.60;99.90;;;;;;4955544;28;19918;-66
2023/04/26 00:22:25;;;;;;;;;;;2.50;99.90;;;;;;4953616;28;19933;-66
2023/04/26 00:24:51;;;;;;;;;;;2.50;99.90;;;;;;4959606;28;19918;-65
2023/04/26 00:27:16;;;;;;;;;;;2.40;99.90;;;;;;4955766;28;20345;-65
2023/04/26 00:29:42;;;;;;;;;;;2.50;99.90;;;;;;4955875;29;19919;-64
2023/04/26 00:32:07;;;;;;;;;;;2.50;99.90;;;;;;4954642;28;20021;-65
2023/04/26 00:34:36;;;;;;;;;;;2.50;99.90;;;;;;4958226;28;19958;-65
2023/04/26 00:37:02;;;;;;;;;;;2.50;99.90;;;;;;4954698;28;19922;-65
2023/04/26 00:39:27;;;;;;;;;;;2.50;99.90;;;;;;4953071;28;19926;-65
2023/04/26 00:41:53;;;;;;;;;;;2.60;99.90;;;;;;4955098;28;19922;-66
2023/04/26 00:44:19;;;;;;;;;;;2.60;99.90;;;;;;4955539;28;19966;-66
2023/04/26 00:46:44;;;;;;;;;;;2.60;99.90;;;;;;4955574;29;19997;-65
2023/04/26 00:49:15;;;;;;;;;;;2.70;99.90;;;;;;4955820;28;19923;-65
2023/04/26 00:51:41;;;;;;;;;;;2.60;99.90;;;;;;4967871;28;20017;-65
2023/04/26 00:54:07;;;;;;;;;;;2.70;99.90;;;;;;4975006;28;19924;-65
2023/04/26 00:56:33;;;;;;;;;;;2.70;99.90;;;;;;4964982;28;19919;-65
2023/04/26 00:58:59;;;;;;;;;;;2.80;99.90;;;;;;4959314;28;19926;-64
2023/04/26 01:01:24;;;;;;;;;;;2.80;99.90;;;;;;4938002;29;19922;-65
2023/04/26 01:03:50;;;;;;;;;;;2.90;99.90;;;;;;4954813;29;19926;-64
2023/04/26 01:06:16;;;;;;;;;;;2.90;99.90;;;;;;4953229;28;19973;-64
2023/04/26 01:08:42;;;;;;;;;;;3.00;99.90;;;;;;4962820;28;20397;-64
2023/04/26 01:11:07;;;;;;;;;;;3.00;99.90;;;;;;4943584;28;19918;-65
2023/04/26 01:13:35;;;;;;;;;;;3.00;99.90;;;;;;4963586;28;19918;-65
2023/04/26 01:16:01;;;;;;;;;;;3.10;99.90;;;;;;4937224;29;20479;-64
2023/04/26 01:18:26;;;;;;;;;;;3.10;99.90;;;;;;4954343;28;19918;-65
2023/04/26 01:20:52;;;;;;;;;;;3.10;99.90;;;;;;4953412;28;20017;-66
2023/04/26 01:23:17;;;;;;;;;;;3.20;99.90;;;;;;4952556;28;19922;-66
2023/04/26 01:25:43;;;;;;;;;;;3.20;99.90;;;;;;4954418;28;19919;-65
2023/04/26 01:28:09;;;;;;;;;;;3.30;99.90;;;;;;4954490;28;19919;-66
2023/04/26 01:30:34;;;;;;;;;;;3.30;99.90;;;;;;4954351;28;19918;-66
2023/04/26 01:33:00;;;;;;;;;;;3.40;99.90;;;;;;4937167;29;19918;-65
2023/04/26 01:35:25;;;;;;;;;;;3.40;99.90;;;;;;4954513;28;20258;-65
2023/04/26 01:37:51;;;;;;;;;;;3.50;99.90;;;;;;4934254;28;19918;-65
2023/04/26 01:40:16;;;;;;;;;;;3.40;99.90;;;;;;4954461;28;19925;-66
2023/04/26 01:42:42;;;;;;;;;;;3.40;99.90;;;;;;4954290;28;19922;-65
2023/04/26 01:45:07;;;;;;;;;;;3.40;99.90;;;;;;4954776;28;19925;-65
2023/04/26 01:47:33;;;;;;;;;;;3.30;99.90;;;;;;4949052;28;20020;-65
2023/04/26 01:49:58;;;;;;;;;;;3.30;99.90;;;;;;4953779;28;20633;-65
2023/04/26 01:52:24;;;;;;;;;;;3.30;99.90;;;;;;4972202;28;19925;-66
2023/04/26 01:54:50;;;;;;;;;;;3.30;99.90;;;;;;4956618;28;19922;-65
2023/04/26 01:57:15;;;;;;;;;;;3.20;99.90;;;;;;4957384;28;19918;-65
2023/04/26 01:59:41;;;;;;;;;;;3.20;99.90;;;;;;4953716;28;19924;-65
2023/04/26 02:02:06;;;;;;;;;;;3.10;99.90;;;;;;4954111;28;19922;-65
2023/04/26 02:04:32;;;;;;;;;;;3.00;99.90;;;;;;4951595;28;20033;-65
2023/04/26 02:06:57;;;;;;;;;;;2.90;99.90;;;;;;4953418;28;19918;-65
2023/04/26 02:09:23;;;;;;;;;;;2.80;99.90;;;;;;4954106;28;19919;-65
2023/04/26 02:11:48;;;;;;;;;;;2.80;99.90;;;;;;4955248;28;19944;-65
2023/04/26 02:14:14;;;;;;;;;;;2.70;99.90;;;;;;4939082;29;19945;-65
2023/04/26 02:16:40;;;;;;;;;;;2.70;99.90;;;;;;4936323;29;20377;-65
2023/04/26 02:19:09;;;;;;;;;;;2.80;99.90;;;;;;4951749;28;19929;-65
2023/04/26 02:21:50;;;;;;;;;;;2.70;99.90;;;;;;4957139;28;20369;-66
2023/04/26 02:24:16;;;;;;;;;;;2.70;99.90;;;;;;4953784;28;19941;-64
2023/04/26 02:26:41;;;;;;;;;;;2.70;99.90;;;;;;4954162;29;20369;-66
2023/04/26 02:29:07;;;;;;;;;;;2.70;99.90;;;;;;4954311;28;19965;-65
2023/04/26 02:31:32;;;;;;;;;;;2.60;99.90;;;;;;4953274;28;19929;-65
2023/04/26 02:33:58;;;;;;;;;;;2.60;99.90;;;;;;4953631;28;20332;-65
2023/04/26 02:36:23;;;;;;;;;;;2.60;99.90;;;;;;4955531;28;19937;-65
2023/04/26 02:38:49;;;;;;;;;;;2.60;99.90;;;;;;4963861;28;19919;-65
2023/04/26 02:41:15;;;;;;;;;;;2.50;99.90;;;;;;4953546;28;19922;-65
2023/04/26 02:43:40;;;;;;;;;;;2.50;99.90;;;;;;4954035;29;19937;-65
2023/04/26 02:46:06;;;;;;;;;;;2.50;99.90;;;;;;4951043;28;19949;-65
2023/04/26 02:48:31;;;;;;;;;;;2.50;99.90;;;;;;4953258;28;19919;-65
2023/04/26 02:50:57;;;;;;;;;;;2.40;99.90;;;;;;4959557;28;20285;-65
2023/04/26 02:53:23;;;;;;;;;;;2.40;99.90;;;;;;4959603;28;19918;-65
2023/04/26 02:55:48;;;;;;;;;;;2.40;99.90;;;;;;4952811;28;19919;-65
2023/04/26 02:58:14;;;;;;;;;;;2.40;99.90;;;;;;4953163;28;19918;-64
2023/04/26 03:00:45;;;;;;;;;;;2.40;99.90;;;;;;4954699;28;19918;-65
2023/04/26 03:03:10;;;;;;;;;;;2.40;99.90;;;;;;4960689;28;20316;-65
2023/04/26 03:05:35;;;;;;;;;;;2.40;99.90;;;;;;4958932;28;19919;-65
2023/04/26 03:08:01;;;;;;;;;;;2.30;99.90;;;;;;4957175;29;19918;-65
2023/04/26 03:10:26;;;;;;;;;;;2.30;99.90;;;;;;4938268;28;19926;-65
2023/04/26 03:12:52;;;;;;;;;;;2.30;99.90;;;;;;4957270;28;19957;-65
2023/04/26 03:15:17;;;;;;;;;;;2.30;99.90;;;;;;4957104;28;20358;-65
2023/04/26 03:17:43;;;;;;;;;;;2.20;99.90;;;;;;4957401;28;19918;-64
2023/04/26 03:20:09;;;;;;;;;;;2.20;99.90;;;;;;4954217;28;19965;-65
2023/04/26 03:22:35;;;;;;;;;;;2.20;99.90;;;;;;4956898;28;20304;-65
2023/04/26 03:25:00;;;;;;;;;;;2.20;99.90;;;;;;4939724;29;20365;-64
2023/04/26 03:27:26;;;;;;;;;;;2.20;99.90;;;;;;4957440;28;20066;-65
2023/04/26 03:29:51;;;;;;;;;;;2.20;99.90;;;;;;4956439;28;19925;-65
2023/04/26 03:32:17;;;;;;;;;;;2.20;99.90;;;;;;4940301;29;19966;-65
2023/04/26 03:34:42;;;;;;;;;;;2.20;99.90;;;;;;4955085;28;19918;-66
2023/04/26 03:37:08;;;;;;;;;;;2.20;99.90;;;;;;4957734;28;19922;-65
2023/04/26 03:39:33;;;;;;;;;;;2.20;99.90;;;;;;4956383;28;19918;-65
2023/04/26 03:41:59;;;;;;;;;;;2.20;99.90;;;;;;4956837;28;20013;-65
2023/04/26 03:44:24;;;;;;;;;;;2.10;99.90;;;;;;4957102;28;19918;-66
2023/04/26 03:46:49;;;;;;;;;;;2.10;99.90;;;;;;4952914;28;19969;-65
2023/04/26 03:49:15;;;;;;;;;;;2.00;99.90;;;;;;4955880;28;20009;-65
2023/04/26 03:51:41;;;;;;;;;;;2.00;99.90;;;;;;4951277;28;20299;-65
2023/04/26 03:54:06;;;;;;;;;;;1.90;99.90;;;;;;4965429;28;19924;-65
2023/04/26 03:56:31;;;;;;;;;;;1.80;99.90;;;;;;4938262;28;19925;-64
2023/04/26 03:58:57;;;;;;;;;;;1.70;99.90;;;;;;4959298;28;20516;-64
2023/04/26 04:01:22;;;;;;;;;;;1.70;99.90;;;;;;4957587;28;19958;-65
2023/04/26 04:03:48;;;;;;;;;;;1.70;99.90;;;;;;4956434;28;19961;-65
2023/04/26 04:06:14;;;;;;;;;;;1.70;99.90;;;;;;4956009;28;20333;-65
2023/04/26 04:08:40;;;;;;;;;;;1.80;99.90;;;;;;4937747;28;20491;-65
2023/04/26 04:11:05;;;;;;;;;;;1.80;99.90;;;;;;4969012;28;19980;-65
2023/04/26 04:13:31;;;;;;;;;;;1.80;99.90;;;;;;4955651;28;20397;-65
2023/04/26 04:15:56;;;;;;;;;;;1.90;99.90;;;;;;4955546;28;19956;-65
2023/04/26 04:18:22;;;;;;;;;;;1.90;99.90;;;;;;4950103;28;19925;-65
2023/04/26 04:20:47;;;;;;;;;;;1.90;99.90;;;;;;4962054;28;19924;-65
2023/04/26 04:23:13;;;;;;;;;;;2.00;99.90;;;;;;4955752;28;20009;-65
2023/04/26 04:25:38;;;;;;;;;;;1.90;99.90;;;;;;4937980;28;19924;-67
2023/04/26 04:28:04;;;;;;;;;;;2.00;99.90;;;;;;4943594;29;19965;-64
2023/04/26 04:30:29;;;;;;;;;;;1.90;99.90;;;;;;4955818;28;19922;-65
2023/04/26 04:32:57;;;;;;;;;;;1.90;99.90;;;;;;4937758;28;19923;-65
2023/04/26 04:35:27;;;;;;;;;;;1.90;99.90;;;;;;4960511;28;19919;-66
2023/04/26 04:37:53;;;;;;;;;;;1.90;99.90;;;;;;4938384;29;19966;-66
2023/04/26 04:40:18;;;;;;;;;;;1.90;99.90;;;;;;4955830;29;19918;-66
2023/04/26 04:42:45;;;;;;;;;;;2.00;99.90;;;;;;4957572;28;20381;-66
2023/04/26 04:45:11;;;;;;;;;;;2.00;99.90;;;;;;4937946;29;19948;-66
2023/04/26 04:47:38;;;;;;;;;;;2.00;99.90;;;;;;4946347;28;19918;-66
2023/04/26 04:50:07;;;;;;;;;;;2.00;99.90;;;;;;4953959;28;19925;-65
2023/04/26 04:52:32;;;;;;;;;;;2.10;99.90;;;;;;4955387;28;19988;-66
2023/04/26 04:54:58;;;;;;;;;;;2.20;99.90;;;;;;4961321;28;20404;-66
2023/04/26 04:57:25;;;;;;;;;;;2.20;99.90;;;;;;4959632;28;19940;-64
2023/04/26 04:59:50;;;;;;;;;;;2.20;99.90;;;;;;4965232;28;20452;-66
2023/04/26 05:02:16;;;;;;;;;;;2.20;99.90;;;;;;4958474;28;19929;-66
2023/04/26 05:04:41;;;;;;;;;;;2.20;99.90;;;;;;4962093;28;20182;-66
2023/04/26 05:07:07;;;;;;;;;;;2.20;99.90;;;;;;4959540;28;19922;-67
2023/04/26 05:09:32;;;;;;;;;;;2.30;99.90;;;;;;4960951;28;19918;-67
2023/04/26 05:11:58;;;;;;;;;;;2.20;99.90;;;;;;4959841;28;20029;-65
2023/04/26 05:14:23;;;;;;;;;;;2.30;99.90;;;;;;4955995;28;20434;-65
2023/04/26 05:16:48;;;;;;;;;;;2.30;99.90;;;;;;4961723;28;19918;-65
2023/04/26 05:19:14;;;;;;;;;;;2.40;99.90;;;;;;4946227;28;19923;-65
2023/04/26 05:21:39;;;;;;;;;;;2.40;99.90;;;;;;4961898;28;19922;-65
2023/04/26 05:24:05;;;;;;;;;;;2.50;99.90;;;;;;4953406;28;20266;-67
2023/04/26 05:26:31;;;;;;;;;;;2.60;99.90;;;;;;4962876;28;19946;-66
2023/04/26 05:28:56;;;;;;;;;;;2.60;99.90;;;;;;4964503;28;20017;-65
2023/04/26 05:31:21;;;;;;;;;;;2.60;99.90;;;;;;4960192;28;20025;-66
2023/04/26 05:33:47;;;;;;;;;;;2.70;99.90;;;;;;4940006;28;20392;-65
2023/04/26 05:36:13;;;;;;;;;;;2.80;99.90;;;;;;4930293;28;19922;-66
2023/04/26 05:38:38;;;;;;;;;;;2.90;99.90;;;;;;4962186;28;19925;-66
2023/04/26 05:41:03;;;;;;;;;;;3.00;99.90;;;;;;4952040;28;19922;-65
2023/04/26 05:43:29;;;;;;;;;;;3.10;99.90;;;;;;4954363;28;19930;-67
2023/04/26 05:45:55;;;;;;;;;;;3.30;99.90;;;;;;4946730;28;19969;-67
2023/04/26 05:48:21;;;;;;;;;;;3.50;99.90;;;;;;4967956;28;19973;-65
2023/04/26 05:50:47;;;;;;;;;;;3.70;99.90;;;;;;4947397;28;19984;-66
2023/04/26 05:53:13;;;;;;;;;;;4.00;99.90;;;;;;4931857;28;19922;-66
2023/04/26 05:55:39;;;;;;;;;;;4.20;99.90;;;;;;4954134;28;20635;-64
2023/04/26 05:58:05;;;;;;;;;;;4.40;99.90;;;;;;4950312;28;19922;-65
2023/04/26 06:00:31;;;;;;;;;;;4.60;99.90;;;;;;4933898;28;20282;-66
2023/04/26 06:02:57;;;;;;;;;;;4.80;99.90;;;;;;4951377;29;20419;-67
2023/04/26 06:05:22;;;;;;;;;;;4.90;99.90;;;;;;4951545;29;19926;-66
2023/04/26 06:07:47;;;;;;;;;;;5.00;99.90;;;;;;4949868;28;20345;-67
2023/04/26 06:10:13;;;;;;;;;;;5.10;99.90;;;;;;4951381;28;19917;-66
2023/04/26 06:12:38;;;;;;;;;;;5.20;99.90;;;;;;4935942;28;20466;-67
2023/04/26 06:15:04;;;;;;;;;;;5.30;99.90;;;;;;4953470;28;20329;-66
2023/04/26 06:17:30;;;;;;;;;;;5.40;99.90;;;;;;4940841;28;19922;-66
2023/04/26 06:19:55;;;;;;;;;;;5.50;99.90;;;;;;4948642;28;19917;-66
2023/04/26 06:22:21;;;;;;;;;;;5.50;99.90;;;;;;4973432;28;19933;-67
2023/04/26 06:24:46;;;;;;;;;;;5.60;99.90;;;;;;4963786;28;19936;-66
2023/04/26 06:27:12;;;;;;;;;;;5.60;99.90;;;;;;4936657;29;19961;-66
2023/04/26 06:29:37;;;;;;;;;;;5.60;99.90;;;;;;4953524;28;19919;-66
2023/04/26 06:32:03;;;;;;;;;;;5.70;99.90;;;;;;4953765;28;19924;-66
2023/04/26 06:34:29;;;;;;;;;;;5.70;99.90;;;;;;4953316;28;19918;-67
2023/04/26 06:36:54;;;;;;;;;;;5.70;99.90;;;;;;4953857;29;20401;-67
2023/04/26 06:39:20;;;;;;;;;;;5.60;99.90;;;;;;4951954;28;19926;-67
2023/04/26 06:41:45;;;;;;;;;;;5.60;99.90;;;;;;4956771;28;19926;-66
2023/04/26 06:44:11;;;;;;;;;;;5.50;99.90;;;;;;4953892;28;19953;-67
2023/04/26 06:46:37;;;;;;;;;;;5.60;99.90;;;;;;4953795;29;19919;-66
2023/04/26 06:49:02;;;;;;;;;;;5.70;99.90;;;;;;4933644;29;19918;-67
2023/04/26 06:51:28;;;;;;;;;;;5.70;99.90;;;;;;4965781;28;19980;-66
2023/04/26 06:53:54;;;;;;;;;;;5.70;99.90;;;;;;4972929;28;20008;-67
2023/04/26 06:56:20;;;;;;;;;;;5.70;99.90;;;;;;4952453;28;20344;-66
2023/04/26 06:58:57;;;;;;;;;;;5.80;99.90;;;;;;4957378;28;19946;-66
2023/04/26 07:01:22;;;;;;;;;;;5.90;99.90;;;;;;4956690;28;19981;-67
2023/04/26 07:03:48;;;;;;;;;;;6.00;99.90;;;;;;4951056;28;19918;-66
2023/04/26 07:06:13;;;;;;;;;;;6.10;99.90;;;;;;4957546;28;20303;-66
2023/04/26 07:08:39;;;;;;;;;;;6.20;99.90;;;;;;4935626;28;19922;-67
2023/04/26 07:11:08;;;;;;;;;;;6.30;99.90;;;;;;4953743;29;19926;-66
2023/04/26 07:13:34;;;;;;;;;;;6.30;99.90;;;;;;4950917;28;19924;-67
2023/04/26 07:15:59;;;;;;;;;;;6.40;99.90;;;;;;4938162;29;19922;-66
2023/04/26 07:18:25;;;;;;;;;;;6.60;99.90;;;;;;4953022;28;20289;-66
2023/04/26 07:20:50;;;;;;;;;;;6.80;99.90;;;;;;4950895;28;19918;-66
2023/04/26 07:23:16;;;;;;;;;;;6.90;99.90;;;;;;4951735;28;20431;-67
2023/04/26 07:25:41;;;;;;;;;;;7.00;99.90;;;;;;4950182;28;19922;-66
2023/04/26 07:28:07;;;;;;;;;;;7.10;99.90;;;;;;4962356;28;19918;-66
2023/04/26 07:30:32;;;;;;;;;;;7.20;99.90;;;;;;4953357;28;19919;-67
2023/04/26 07:32:58;;;;;;;;;;;7.30;99.90;;;;;;4951068;28;19925;-67
2023/04/26 07:35:23;;;;;;;;;;;7.40;99.90;;;;;;4952657;28;20380;-67
2023/04/26 07:37:49;;;;;;;;;;;7.60;99.90;;;;;;4933280;28;19925;-67
2023/04/26 07:40:15;;;;;;;;;;;7.60;99.90;;;;;;4953104;28;19918;-67
2023/04/26 07:42:40;;;;;;;;;;;7.80;99.90;;;;;;4952610;28;20057;-67
2023/04/26 07:45:07;;;;;;;;;;;7.90;99.90;;;;;;4950851;28;20277;-66
2023/04/26 07:47:32;;;;;;;;;;;8.00;99.90;;;;;;4959418;28;19918;-67
2023/04/26 07:49:58;;;;;;;;;;;7.90;99.90;;;;;;4956300;28;20278;-67
2023/04/26 07:52:23;;;;;;;;;;;8.00;99.90;;;;;;4974341;28;19926;-66
2023/04/26 07:54:49;;;;;;;;;;;8.00;99.90;;;;;;4964419;28;19925;-67
2023/04/26 07:57:15;;;;;;;;;;;8.00;99.90;;;;;;4955992;28;20301;-67
2023/04/26 07:59:40;;;;;;;;;;;8.00;99.90;;;;;;4956150;28;19919;-67
2023/04/26 08:02:06;;;;;;;;;;;8.10;99.90;;;;;;4939105;29;19922;-67
2023/04/26 08:04:32;;;;;;;;;;;8.20;99.90;;;;;;4936117;28;19922;-67
2023/04/26 08:07:00;;;;;;;;;;;8.10;99.90;;;;;;4955168;28;20381;-67
2023/04/26 08:09:25;;;;;;;;;;;8.10;99.90;;;;;;4956333;28;19965;-67
2023/04/26 08:11:51;;;;;;;;;;;8.10;99.90;;;;;;4960826;28;20333;-67
2023/04/26 08:14:16;;;;;;;;;;;8.10;99.90;;;;;;4963571;28;19918;-67
2023/04/26 08:16:42;;;;;;;;;;;8.40;99.90;;;;;;4961473;28;20357;-67
2023/04/26 08:19:08;;;;;;;;;;;8.50;99.90;;;;;;4955287;28;19940;-67
2023/04/26 08:21:33;;;;;;;;;;;8.50;99.90;;;;;;4956113;28;20604;-66
2023/04/26 08:23:59;;;;;;;;;;;8.50;99.90;;;;;;4955919;29;19925;-67
2023/04/26 08:26:24;;;;;;;;;;;8.50;99.90;;;;;;4953592;28;19941;-66
2023/04/26 08:28:50;;;;;;;;;;;8.50;99.90;;;;;;4952789;28;20444;-67
2023/04/26 08:31:15;;;;;;;;;;;8.50;99.90;;;;;;4958261;28;19918;-67
2023/04/26 08:33:41;;;;;;;;;;;8.60;99.90;;;;;;4956047;28;19941;-67
2023/04/26 08:36:06;;;;;;;;;;;8.60;99.90;;;;;;4952966;28;19968;-67
2023/04/26 08:38:32;;;;;;;;;;;8.60;99.90;;;;;;4937828;28;19930;-66
2023/04/26 08:41:00;;;;;;;;;;;8.60;99.90;;;;;;4955839;28;19918;-67
2023/04/26 08:43:27;;;;;;;;;;;8.60;99.90;;;;;;4953656;28;19922;-67
2023/04/26 08:45:53;;;;;;;;;;;8.40;99.90;;;;;;4958561;28;19992;-67
2023/04/26 08:48:18;;;;;;;;;;;8.30;99.90;;;;;;4960501;28;20436;-67
2023/04/26 08:50:45;;;;;;;;;;;8.30;99.90;;;;;;4942561;28;20057;-67
2023/04/26 08:53:16;;;;;;;;;;;8.20;99.90;;;;;;4939105;29;19929;-67
2023/04/26 08:55:45;;;;;;;;;;;8.20;99.90;;;;;;4956405;28;19918;-67
2023/04/26 08:58:11;;;;;;;;;;;8.30;99.90;;;;;;4954419;28;19918;-67
2023/04/26 09:00:37;;;;;;;;;;;8.30;99.90;;;;;;4955354;28;19922;-67
2023/04/26 09:03:03;;;;;;;;;;;8.30;99.90;;;;;;4957390;28;19922;-67
2023/04/26 09:05:28;;;;;;;;;;;8.20;99.90;;;;;;4954027;28;19926;-67
2023/04/26 09:08:00;;;;;;;;;;;8.20;99.90;;;;;;4937699;29;19918;-67
2023/04/26 09:10:26;;;;;;;;;;;8.30;99.90;;;;;;4955342;29;19919;-67
2023/04/26 09:12:53;;;;;;;;;;;8.30;99.90;;;;;;4952658;28;19996;-66
2023/04/26 09:15:20;;;;;;;;;;;8.40;99.90;;;;;;4954989;28;19918;-67
2023/04/26 09:17:45;;;;;;;;;;;8.40;99.90;;;;;;4972822;28;19917;-67
2023/04/26 09:20:18;;;;;;;;;;;8.40;99.90;;;;;;4939691;29;20340;-66
2023/04/26 09:22:45;;;;;;;;;;;8.60;99.90;;;;;;4954472;28;20388;-67
2023/04/26 09:25:12;;;;;;;;;;;8.70;99.90;;;;;;4955234;29;19922;-67
2023/04/26 09:27:39;;;;;;;;;;;8.90;99.90;;;;;;4952086;28;19977;-66
2023/04/26 09:30:12;;;;;;;;;;;8.90;99.90;;;;;;4942184;28;19949;-68
2023/04/26 09:32:54;;;;;;;;;;;8.90;99.90;;;;;;4956476;28;19925;-67
2023/04/26 09:35:29;;;;;;;;;;;9.00;99.90;;;;;;4935539;28;20004;-68
2023/04/26 09:37:57;;;;;;;;;;;9.00;99.90;;;;;;4958270;28;20357;-67
2023/04/26 09:40:22;;;;;;;;;;;9.00;99.90;;;;;;4954279;28;19922;-68
2023/04/26 09:42:57;;;;;;;;;;;9.10;99.90;;;;;;4937491;29;20363;-67
2023/04/26 09:45:23;;;;;;;;;;;9.20;99.90;;;;;;4933321;29;19980;-67
2023/04/26 09:47:49;;;;;;;;;;;9.30;99.90;;;;;;4953637;28;19918;-66
2023/04/26 09:50:24;;;;;;;;;;;9.50;99.90;;;;;;4937567;28;19925;-67
2023/04/26 09:52:50;;;;;;;;;;;9.60;99.90;;;;;;4949377;28;19944;-65
2023/04/26 09:55:25;;;;;;;;;;;9.60;99.90;;;;;;4936485;29;20476;-68
2023/04/26 09:57:50;;;;;;;;;;;9.50;99.90;;;;;;4936822;29;20297;-67
2023/04/26 10:00:16;;;;;;;;;;;9.70;99.90;;;;;;4937149;29;20412;-68
2023/04/26 10:02:41;;;;;;;;;;;9.90;99.90;;;;;;4951169;28;20016;-67
2023/04/26 10:05:08;;;;;;;;;;;10.10;99.90;;;;;;4954186;28;19925;-67
2023/04/26 10:07:35;;;;;;;;;;;10.00;99.90;;;;;;4970522;28;19918;-67
2023/04/26 10:10:00;;;;;;;;;;;10.20;99.90;;;;;;4940314;29;20312;-69
2023/04/26 10:12:26;;;;;;;;;;;10.20;99.90;;;;;;4936844;29;19919;-69
2023/04/26 10:14:52;;;;;;;;;;;10.20;99.90;;;;;;4953717;28;20321;-69
2023/04/26 10:17:19;;;;;;;;;;;10.20;99.90;;;;;;4951350;28;19918;-69
2023/04/26 10:19:46;;;;;;;;;;;10.10;99.90;;;;;;4936143;28;20372;-68
2023/04/26 10:22:15;;;;;;;;;;;10.10;99.90;;;;;;4953500;28;20193;-69
2023/04/26 10:24:42;;;;;;;;;;;10.20;99.90;;;;;;4934767;28;19918;-68
2023/04/26 10:27:07;;;;;;;;;;;10.40;99.90;;;;;;4933432;28;20343;-68
2023/04/26 10:29:51;;;;;;;;;;;10.30;99.90;;;;;;4961399;28;19922;-68
2023/04/26 10:32:18;;;;;;;;;;;10.40;99.90;;;;;;4934592;28;20030;-68
2023/04/26 10:34:44;;;;;;;;;;;10.70;99.90;;;;;;4952639;28;19918;-68
2023/04/26 10:37:11;;;;;;;;;;;10.90;99.90;;;;;;4953031;28;19918;-68
2023/04/26 10:39:37;;;;;;;;;;;10.90;99.90;;;;;;4953306;28;19918;-68
2023/04/26 10:42:22;;;;;;;;;;;11.00;99.90;;;;;;4953511;28;20388;-69
2023/04/26 10:44:48;;;;;;;;;;;11.00;99.90;;;;;;4959656;28;19961;-69
2023/04/26 10:47:21;;;;;;;;;;;11.20;99.90;;;;;;4935918;29;19918;-68
2023/04/26 10:49:47;;;;;;;;;;;11.00;99.90;;;;;;4936375;29;19918;-69
2023/04/26 10:52:18;;;;;;;;;;;10.50;99.90;;;;;;4951055;28;20081;-69
2023/04/26 10:54:44;;;;;;;;;;;10.10;99.90;;;;;;4953025;28;19918;-68
2023/04/26 10:57:09;;;;;;;;;;;9.80;99.90;;;;;;4959593;28;19933;-69
2023/04/26 10:59:35;;;;;;;;;;;9.20;99.90;;;;;;4939460;28;19918;-68
2023/04/26 11:02:00;;;;;;;;;;;8.90;99.90;;;;;;4965664;28;19933;-68
2023/04/26 11:04:46;;;;;;;;;;;8.70;99.90;;;;;;4948541;28;19924;-68
2023/04/26 11:07:12;;;;;;;;;;;8.60;99.90;;;;;;4942472;28;19953;-69
2023/04/26 11:09:47;;;;;;;;;;;8.40;99.90;;;;;;4967436;28;19918;-68
2023/04/26 11:12:13;;;;;;;;;;;8.40;99.90;;;;;;4945802;28;19921;-68
2023/04/26 11:14:44;;;;;;;;;;;8.30;99.90;;;;;;4943953;28;19924;-69
2023/04/26 11:17:10;;;;;;;;;;;8.30;99.90;;;;;;4961568;28;19933;-69
2023/04/26 11:19:36;;;;;;;;;;;8.30;99.90;;;;;;4963930;28;19978;-68
2023/04/26 11:22:02;;;;;;;;;;;8.40;99.90;;;;;;4950047;28;20009;-68
2023/04/26 11:24:31;;;;;;;;;;;8.50;99.90;;;;;;4943352;28;19949;-69
2023/04/26 11:26:57;;;;;;;;;;;8.60;99.90;;;;;;4929889;28;19928;-69
2023/04/26 11:29:23;;;;;;;;;;;8.70;99.90;;;;;;4966383;28;19921;-68
2023/04/26 11:31:51;;;;;;;;;;;8.70;99.90;;;;;;4963280;28;19995;-69
2023/04/26 11:34:18;;;;;;;;;;;8.70;99.90;;;;;;4943331;28;20284;-69
2023/04/26 11:36:45;;;;;;;;;;;8.70;99.90;;;;;;4948142;28;20291;-68
2023/04/26 11:39:11;;;;;;;;;;;8.80;99.90;;;;;;4947585;28;19929;-68
2023/04/26 11:41:36;;;;;;;;;;;8.90;99.90;;;;;;4975191;28;20009;-68
2023/04/26 11:44:02;;;;;;;;;;;9.00;99.90;;;;;;4951097;28;19928;-68
2023/04/26 11:46:28;;;;;;;;;;;9.10;99.90;;;;;;4951888;28;20281;-68
2023/04/26 11:48:53;;;;;;;;;;;9.30;99.90;;;;;;4961094;28;19918;-69
2023/04/26 11:51:20;;;;;;;;;;;9.50;99.90;;;;;;4964834;28;19994;-68
2023/04/26 11:53:46;;;;;;;;;;;9.60;99.90;;;;;;4939700;28;20356;-69
2023/04/26 11:56:19;;;;;;;;;;;9.80;99.90;;;;;;4955095;28;19968;-69
2023/04/26 11:58:48;;;;;;;;;;;10.00;99.90;;;;;;4945511;28;19919;-69
2023/04/26 12:01:20;;;;;;;;;;;10.20;99.90;;;;;;4957270;28;20020;-69
2023/04/26 12:03:48;;;;;;;;;;;10.40;99.90;;;;;;4952353;28;19922;-69
2023/04/26 12:06:14;;;;;;;;;;;10.20;99.90;;;;;;4951334;28;19918;-69
2023/04/26 12:08:39;;;;;;;;;;;10.10;99.90;;;;;;4937995;28;19922;-69
2023/04/26 12:11:05;;;;;;;;;;;10.00;99.90;;;;;;4969158;28;19965;-69
2023/04/26 12:13:31;;;;;;;;;;;10.00;99.90;;;;;;4950663;28;19918;-69
2023/04/26 12:15:57;;;;;;;;;;;10.10;99.90;;;;;;4970027;28;19922;-69
2023/04/26 12:18:29;;;;;;;;;;;10.10;99.90;;;;;;4957762;28;19976;-69
2023/04/26 12:20:56;;;;;;;;;;;10.10;99.90;;;;;;4975168;28;19918;-69
2023/04/26 12:23:22;;;;;;;;;;;10.10;99.90;;;;;;4944259;29;19926;-69
2023/04/26 12:25:52;;;;;;;;;;;10.00;99.90;;;;;;4959282;28;19937;-69
2023/04/26 12:28:17;;;;;;;;;;;10.00;99.90;;;;;;4960016;28;20554;-69
2023/04/26 12:30:43;;;;;;;;;;;10.00;99.90;;;;;;4953839;28;19925;-69
2023/04/26 12:33:08;;;;;;;;;;;9.90;99.90;;;;;;4936648;29;19918;-69
2023/04/26 12:35:34;;;;;;;;;;;9.90;99.90;;;;;;4951784;28;19923;-69
2023/04/26 12:38:00;;;;;;;;;;;9.80;99.90;;;;;;4953229;28;19921;-69
2023/04/26 12:40:27;;;;;;;;;;;9.80;99.90;;;;;;4953671;28;19918;-69
2023/04/26 12:42:54;;;;;;;;;;;9.70;99.90;;;;;;4937821;29;19926;-69
2023/04/26 12:45:21;;;;;;;;;;;9.60;99.90;;;;;;4955914;28;19965;-70
2023/04/26 12:47:46;;;;;;;;;;;9.70;99.90;;;;;;4954883;28;20276;-70
2023/04/26 12:50:13;;;;;;;;;;;9.50;99.90;;;;;;4959292;28;19918;-70
2023/04/26 12:52:39;;;;;;;;;;;9.50;99.90;;;;;;4942767;28;19918;-70
2023/04/26 12:55:05;;;;;;;;;;;9.50;99.90;;;;;;4945794;28;19942;-70
2023/04/26 12:57:31;;;;;;;;;;;9.40;99.90;;;;;;4966489;28;20322;-70
2023/04/26 12:59:57;;;;;;;;;;;9.40;99.90;;;;;;4960348;28;19922;-69
2023/04/26 13:02:23;;;;;;;;;;;9.30;99.90;;;;;;4955495;29;19930;-67
2023/04/26 13:04:48;;;;;;;;;;;9.20;99.90;;;;;;4960575;28;19993;-67
2023/04/26 13:07:15;;;;;;;;;;;9.20;99.90;;;;;;4952501;28;20501;-67
2023/04/26 13:09:40;;;;;;;;;;;9.20;99.90;;;;;;4939002;28;19925;-66
2023/04/26 13:12:06;;;;;;;;;;;9.30;99.90;;;;;;4939271;28;19923;-66
2023/04/26 13:14:31;;;;;;;;;;;9.30;99.90;;;;;;4942264;28;19922;-67
2023/04/26 13:16:57;;;;;;;;;;;9.30;99.90;;;;;;4963205;28;20000;-67
2023/04/26 13:19:22;;;;;;;;;;;9.40;99.90;;;;;;4968786;28;19921;-67
2023/04/26 13:21:48;;;;;;;;;;;9.50;99.90;;;;;;4962312;28;20396;-66
2023/04/26 13:24:13;;;;;;;;;;;9.70;99.90;;;;;;4965969;28;19918;-66
2023/04/26 13:26:39;;;;;;;;;;;9.90;99.90;;;;;;4965487;28;19922;-66
2023/04/26 13:29:05;;;;;;;;;;;10.00;99.90;;;;;;4961955;28;20036;-67
2023/04/26 13:31:30;;;;;;;;;;;10.20;99.90;;;;;;4943688;28;20672;-66
2023/04/26 13:33:56;;;;;;;;;;;10.40;99.90;;;;;;4948934;28;19970;-66
2023/04/26 13:36:21;;;;;;;;;;;10.50;99.20;;;;;;4946386;28;19922;-66
2023/04/26 13:38:47;;;;;;;;;;;10.80;99.40;;;;;;4960961;28;19926;-67
2023/04/26 13:41:15;;;;;;;;;;;10.90;99.10;;;;;;4959070;28;20533;-68
2023/04/26 13:43:40;;;;;;;;;;;10.90;98.50;;;;;;4946792;28;19968;-69
2023/04/26 13:46:05;;;;;;;;;;;11.10;99.90;;;;;;4948291;29;20365;-69
2023/04/26 13:48:31;;;;;;;;;;;11.20;99.90;;;;;;4940956;28;19919;-69
2023/04/26 13:50:57;;;;;;;;;;;11.10;97.80;;;;;;4956152;28;19925;-69
2023/04/26 13:53:23;;;;;;;;;;;11.20;98.40;;;;;;4939031;28;19922;-69
2023/04/26 13:55:48;;;;;;;;;;;11.30;98.60;;;;;;4953606;28;19924;-69
2023/04/26 13:58:14;;;;;;;;;;;11.30;99.60;;;;;;4937057;29;19948;-69
2023/04/26 14:00:39;;;;;;;;;;;11.40;99.60;;;;;;4954356;29;19919;-69
2023/04/26 14:03:05;;;;;;;;;;;11.30;99.40;;;;;;4953889;28;20033;-69
2023/04/26 14:05:30;;;;;;;;;;;10.90;99.90;;;;;;4941947;28;19973;-69
2023/04/26 14:07:56;;;;;;;;;;;10.80;98.50;;;;;;4954434;28;20009;-69
2023/04/26 14:10:21;;;;;;;;;;;10.60;98.40;;;;;;4954237;28;19918;-66
2023/04/26 14:12:47;;;;;;;;;;;10.40;99.00;;;;;;4954332;29;19925;-66
2023/04/26 14:15:12;;;;;;;;;;;10.40;99.30;;;;;;4935694;29;19918;-66
2023/04/26 14:17:38;;;;;;;;;;;10.20;99.60;;;;;;4952721;28;19973;-66
2023/04/26 14:20:04;;;;;;;;;;;10.20;99.90;;;;;;4934110;29;19927;-67
2023/04/26 14:22:29;;;;;;;;;;;10.20;99.70;;;;;;4946875;28;19922;-69
2023/04/26 14:24:55;;;;;;;;;;;10.20;99.90;;;;;;4965766;28;20432;-69